This is the latest recevied weather packets stored in our database for station/object KO4FQW-11. If no packets are shown the sender has not sent any weather packets the latest 10 day(s).
| Time | Temp. | Humidity | Pressure | Rain* | Wind** | Luminosity | Snow |
|---|---|---|---|---|---|---|---|
| 1788524997 | 22.78° C | 87% | 1014 hPa | 1.27 mm | - | - | - |
| 1788524015 | 22.78° C | 87% | 1014 hPa | 1.27 mm | - | - | - |
| 1788489450 | 27.22° C | 71% | 1014 hPa | 0 mm | - | - | - |
| 1788488490 | 27.22° C | 71% | 1014 hPa | 0 mm | - | - | - |
| 1788487530 | 27.22° C | 71% | 1014 hPa | 0 mm | - | - | - |
| 1788486690 | 27.22° C | 71% | 1014 hPa | 0 mm | - | - | - |
| 1788486570 | 27.22° C | 71% | 1014 hPa | 0 mm | - | - | - |
| 1788485832 | 28.89° C | 66% | 1013 hPa | 0 mm | - | - | - |
| 1788485613 | 28.89° C | 66% | 1013 hPa | 0 mm | - | - | - |
| 1788484652 | 28.89° C | 66% | 1013 hPa | 0 mm | - | - | - |
| 1788483690 | 28.89° C | 66% | 1013 hPa | 0 mm | - | - | - |
| 1788482730 | 28.89° C | 66% | 1013 hPa | 0 mm | - | - | - |
| 1788482242 | 30.56° C | 56% | 1012 hPa | 0 mm | - | - | - |
| 1788481770 | 30.56° C | 56% | 1012 hPa | 0 mm | - | - | - |
| 1788480810 | 30.56° C | 56% | 1012 hPa | 0 mm | - | - | - |
| 1788479850 | 30.56° C | 56% | 1012 hPa | 0 mm | - | - | - |
| 1788478890 | 30.56° C | 56% | 1012 hPa | 0 mm | - | - | - |
| 1788477930 | 31.67° C | 51% | 1012 hPa | 0 mm | - | - | - |
| 1788476971 | 31.67° C | 51% | 1012 hPa | 0 mm | - | - | - |
| 1788476010 | 31.67° C | 51% | 1012 hPa | 0 mm | - | - | - |
| 1788475050 | 33.89° C | 45% | 1012 hPa | 0 mm | - | - | - |
| 1788474090 | 33.89° C | 45% | 1012 hPa | 0 mm | - | - | - |
| 1788473130 | 33.89° C | 45% | 1012 hPa | 0 mm | - | - | - |
| 1788472170 | 33.89° C | 45% | 1012 hPa | 0 mm | - | - | - |
| 1788471210 | 33.89° C | 48% | 1013 hPa | 0 mm | - | - | - |
* Rain latest hour (hover to see other rain measurements)
** Current wind speed in m/s (hover to see current wind gust speed)